Time;durP1;ratioP1;P1;durP2;ratioP2;P2;SDS_P1;SDS_P2;PMS_P1;PMS_P2;Temp;Humidity;BMP_temperature;BMP_pressure;BME280_temperature;BME280_humidity;BME280_pressure;Samples;Min_cycle;Max_cycle;Signal;HPM_P1;HPM_P2
2023/06/17 00:00:39;;;;;;;9.25;4.38;;;17.50;82.40;;;;;;5133422;27;20374;-63
2023/06/17 00:03:04;;;;;;;4.97;3.20;;;17.40;82.80;;;;;;5133743;27;20172;-64
2023/06/17 00:05:30;;;;;;;5.85;3.63;;;17.40;83.00;;;;;;5133577;27;20482;-64
2023/06/17 00:07:56;;;;;;;10.35;3.92;;;17.40;83.10;;;;;;5133305;27;20121;-64
2023/06/17 00:10:21;;;;;;;8.07;3.58;;;17.40;83.30;;;;;;5133366;27;20027;-64
2023/06/17 00:12:48;;;;;;;5.97;4.07;;;17.40;83.70;;;;;;5133175;28;20550;-64
2023/06/17 00:15:16;;;;;;;5.28;4.00;;;17.30;84.20;;;;;;5133543;28;20035;-64
2023/06/17 00:17:46;;;;;;;4.90;3.53;;;17.40;84.60;;;;;;5133150;28;20019;-64
2023/06/17 00:20:13;;;;;;;5.78;3.85;;;17.30;84.60;;;;;;5133112;28;20425;-64
2023/06/17 00:22:39;;;;;;;4.43;3.40;;;17.30;84.90;;;;;;5133523;27;20027;-64
2023/06/17 00:25:06;;;;;;;5.88;4.05;;;17.30;85.50;;;;;;5137479;27;20450;-64
2023/06/17 00:27:32;;;;;;;5.30;3.70;;;17.30;85.60;;;;;;5137583;27;20019;-64
2023/06/17 00:30:00;;;;;;;4.75;3.85;;;17.30;85.80;;;;;;5137250;27;20031;-64
2023/06/17 00:32:30;;;;;;;4.68;3.70;;;17.30;86.10;;;;;;5136244;27;20026;-64
2023/06/17 00:34:56;;;;;;;5.03;3.50;;;17.20;86.40;;;;;;5137180;27;20139;-64
2023/06/17 00:37:22;;;;;;;6.35;3.63;;;17.20;86.40;;;;;;5137297;27;20106;-65
2023/06/17 00:39:48;;;;;;;4.85;3.85;;;17.20;86.80;;;;;;5136799;27;20023;-64
2023/06/17 00:42:14;;;;;;;4.82;3.63;;;17.10;86.90;;;;;;5137211;27;20035;-65
2023/06/17 00:44:41;;;;;;;6.43;3.80;;;17.20;87.20;;;;;;5137417;27;20077;-65
2023/06/17 00:47:11;;;;;;;4.80;3.45;;;17.20;87.40;;;;;;5137686;27;20110;-65
2023/06/17 00:49:39;;;;;;;5.50;3.65;;;17.10;87.40;;;;;;5137374;27;20475;-65
2023/06/17 00:52:10;;;;;;;4.22;3.67;;;17.10;87.70;;;;;;5133555;27;20038;-65
2023/06/17 00:54:40;;;;;;;5.20;3.58;;;17.10;88.00;;;;;;5137361;27;20110;-64
2023/06/17 00:57:14;;;;;;;4.13;3.40;;;17.00;88.00;;;;;;5137062;27;20035;-65
2023/06/17 00:59:42;;;;;;;11.25;3.90;;;17.10;87.90;;;;;;5137263;27;20114;-65
2023/06/17 01:02:10;;;;;;;4.28;3.60;;;17.10;87.70;;;;;;5118410;27;20102;-65
2023/06/17 01:04:42;;;;;;;6.50;3.83;;;17.10;87.70;;;;;;5136891;27;20031;-65
2023/06/17 01:07:30;;;;;;;5.80;4.00;;;17.10;88.00;;;;;;5136653;27;20027;-65
2023/06/17 01:10:01;;;;;;;4.80;3.67;;;17.10;88.00;;;;;;5136442;27;20361;-64
2023/06/17 01:12:29;;;;;;;4.03;3.50;;;17.10;88.40;;;;;;5136785;27;20027;-64
2023/06/17 01:14:57;;;;;;;5.57;3.92;;;17.00;88.70;;;;;;5136261;27;20526;-65
2023/06/17 01:17:25;;;;;;;5.32;4.05;;;17.00;89.00;;;;;;5131654;27;20076;-64
2023/06/17 01:19:53;;;;;;;7.22;3.70;;;17.00;89.30;;;;;;5115816;28;20032;-65
2023/06/17 01:22:20;;;;;;;5.55;3.95;;;17.00;89.30;;;;;;5116107;28;20019;-65
2023/06/17 01:24:49;;;;;;;6.65;3.95;;;17.00;89.30;;;;;;5097305;28;20416;-65
2023/06/17 01:27:15;;;;;;;6.60;4.00;;;17.00;89.60;;;;;;5116085;28;20058;-65
2023/06/17 01:29:41;;;;;;;4.90;3.95;;;16.90;90.00;;;;;;5115604;28;20349;-65
2023/06/17 01:32:07;;;;;;;7.97;3.80;;;16.90;90.30;;;;;;5115406;28;20154;-65
2023/06/17 01:34:42;;;;;;;6.15;4.72;;;16.90;90.30;;;;;;5114534;28;20063;-65
2023/06/17 01:37:11;;;;;;;4.82;4.00;;;16.90;90.60;;;;;;5115158;28;20038;-65
2023/06/17 01:39:39;;;;;;;4.40;3.90;;;16.90;90.70;;;;;;5115714;28;20030;-65
2023/06/17 01:42:09;;;;;;;5.18;3.92;;;16.80;90.80;;;;;;5114865;28;20024;-65
2023/06/17 01:44:36;;;;;;;18.37;6.70;;;16.80;91.00;;;;;;5116144;28;20024;-65
2023/06/17 01:47:02;;;;;;;5.63;4.53;;;16.70;91.20;;;;;;5115509;28;20043;-65
2023/06/17 01:49:28;;;;;;;5.43;4.40;;;16.60;91.40;;;;;;5115724;28;20027;-64
2023/06/17 01:51:54;;;;;;;9.52;4.28;;;16.60;91.80;;;;;;5115229;28;20072;-65
2023/06/17 01:54:19;;;;;;;5.50;4.38;;;16.50;92.10;;;;;;5115413;28;20028;-65
2023/06/17 01:56:46;;;;;;;8.40;4.07;;;16.50;92.30;;;;;;5115482;28;20035;-65
2023/06/17 01:59:11;;;;;;;5.45;4.30;;;16.50;92.50;;;;;;5115382;28;20027;-65
2023/06/17 02:01:37;;;;;;;4.68;3.90;;;16.40;92.70;;;;;;5115149;28;20027;-65
2023/06/17 02:04:03;;;;;;;6.05;4.20;;;16.40;93.10;;;;;;5115040;28;20080;-65
2023/06/17 02:06:28;;;;;;;6.63;3.90;;;16.40;93.20;;;;;;5115347;28;20023;-64
2023/06/17 02:08:55;;;;;;;5.53;4.45;;;16.40;93.40;;;;;;5115109;28;20030;-64
2023/06/17 02:11:21;;;;;;;6.25;4.68;;;16.30;93.50;;;;;;5115183;28;20482;-64
2023/06/17 02:13:47;;;;;;;8.32;4.25;;;16.30;93.70;;;;;;5115422;28;20023;-64
2023/06/17 02:16:12;;;;;;;7.05;4.60;;;16.30;94.00;;;;;;5114532;28;20406;-64
2023/06/17 02:18:39;;;;;;;5.55;4.30;;;16.30;94.10;;;;;;5115075;28;20028;-64
2023/06/17 02:21:05;;;;;;;7.32;4.45;;;16.20;94.20;;;;;;5114548;28;20055;-66
2023/06/17 02:23:30;;;;;;;5.18;4.40;;;16.20;94.30;;;;;;5123269;27;20055;-65
2023/06/17 02:25:57;;;;;;;8.95;4.60;;;16.20;94.60;;;;;;5135125;27;20025;-66
2023/06/17 02:28:22;;;;;;;5.63;4.57;;;16.20;94.40;;;;;;5135671;27;20073;-65
2023/06/17 02:30:48;;;;;;;5.65;4.53;;;16.20;94.70;;;;;;5135530;27;20417;-65
2023/06/17 02:33:17;;;;;;;4.85;4.18;;;16.20;94.80;;;;;;5134944;27;20135;-66
2023/06/17 02:35:44;;;;;;;8.23;4.50;;;16.30;94.80;;;;;;5135402;27;20067;-65
2023/06/17 02:38:10;;;;;;;7.85;4.85;;;16.20;94.90;;;;;;5134870;27;20193;-64
2023/06/17 02:40:36;;;;;;;6.60;4.55;;;16.20;95.10;;;;;;5134881;27;20023;-65
2023/06/17 02:43:01;;;;;;;6.13;4.50;;;16.20;95.20;;;;;;5134745;27;20027;-64
2023/06/17 02:45:27;;;;;;;6.43;4.40;;;16.20;95.30;;;;;;5134539;27;20062;-64
2023/06/17 02:47:53;;;;;;;6.03;4.65;;;16.20;95.50;;;;;;5134263;27;20030;-65
2023/06/17 02:50:23;;;;;;;6.38;5.10;;;16.20;95.50;;;;;;5134831;27;20486;-64
2023/06/17 02:52:55;;;;;;;8.02;4.75;;;16.20;95.50;;;;;;5134818;27;20391;-64
2023/06/17 02:55:22;;;;;;;7.05;5.15;;;16.10;95.80;;;;;;5131467;27;20459;-64
2023/06/17 02:57:48;;;;;;;7.10;5.22;;;16.10;96.10;;;;;;5134879;27;20367;-65
2023/06/17 03:00:13;;;;;;;5.85;4.85;;;16.10;96.10;;;;;;5134305;27;20367;-64
2023/06/17 03:02:39;;;;;;;7.57;4.78;;;16.10;96.20;;;;;;5134785;27;20026;-64
2023/06/17 03:05:06;;;;;;;9.60;5.13;;;16.00;96.60;;;;;;5134042;27;20471;-65
2023/06/17 03:07:35;;;;;;;7.22;4.63;;;16.00;96.70;;;;;;5134585;27;20027;-65
2023/06/17 03:10:04;;;;;;;7.18;4.53;;;16.00;96.70;;;;;;5134557;27;20076;-65
2023/06/17 03:12:30;;;;;;;6.07;4.35;;;15.90;96.90;;;;;;5134458;27;20015;-64
2023/06/17 03:14:57;;;;;;;5.57;4.30;;;15.90;97.10;;;;;;5134076;27;20035;-65
2023/06/17 03:17:24;;;;;;;5.97;4.40;;;15.90;97.10;;;;;;5134718;27;20050;-64
2023/06/17 03:19:50;;;;;;;6.57;4.40;;;15.90;97.10;;;;;;5123569;27;20368;-64
2023/06/17 03:22:15;;;;;;;6.10;4.32;;;15.90;97.20;;;;;;5113400;28;20020;-64
2023/06/17 03:24:41;;;;;;;5.95;4.68;;;15.90;97.20;;;;;;5095544;28;20027;-64
2023/06/17 03:27:07;;;;;;;6.30;4.40;;;16.00;97.30;;;;;;5113377;28;20019;-64
2023/06/17 03:29:35;;;;;;;7.45;5.10;;;16.00;97.20;;;;;;5095483;28;20024;-64
2023/06/17 03:32:01;;;;;;;6.20;4.68;;;16.00;97.20;;;;;;5113132;28;20024;-64
2023/06/17 03:34:26;;;;;;;6.47;4.93;;;15.90;97.40;;;;;;5113469;28;20326;-64
2023/06/17 03:36:52;;;;;;;8.45;4.70;;;15.90;97.60;;;;;;5113606;28;20034;-64
2023/06/17 03:39:18;;;;;;;5.43;4.38;;;15.90;97.60;;;;;;5112888;28;20031;-64
2023/06/17 03:41:44;;;;;;;5.80;4.60;;;15.90;97.80;;;;;;5113539;28;20024;-64
2023/06/17 03:44:10;;;;;;;6.97;4.25;;;16.00;97.70;;;;;;5113401;28;20540;-65
2023/06/17 03:46:35;;;;;;;8.00;4.53;;;16.00;97.70;;;;;;5113379;28;20529;-64
2023/06/17 03:49:02;;;;;;;9.52;5.15;;;16.10;97.60;;;;;;5113040;28;20055;-64
2023/06/17 03:51:28;;;;;;;7.63;4.95;;;16.10;97.50;;;;;;5113154;28;20027;-64
2023/06/17 03:53:53;;;;;;;5.63;4.40;;;16.10;97.60;;;;;;5113002;28;20090;-64
2023/06/17 03:56:19;;;;;;;8.93;4.90;;;16.20;97.20;;;;;;5112486;28;20035;-64
2023/06/17 03:58:45;;;;;;;8.20;4.70;;;16.20;97.20;;;;;;5111990;28;20369;-64
2023/06/17 04:01:12;;;;;;;7.00;4.90;;;16.20;97.10;;;;;;5112455;28;20055;-64
2023/06/17 04:03:40;;;;;;;5.65;4.82;;;16.30;97.00;;;;;;5094710;28;20032;-64
2023/06/17 04:06:06;;;;;;;6.88;4.70;;;16.40;96.70;;;;;;5112401;28;20449;-65
2023/06/17 04:08:32;;;;;;;5.70;4.57;;;16.40;96.40;;;;;;5112904;28;20024;-64
2023/06/17 04:10:59;;;;;;;12.93;5.43;;;16.40;96.40;;;;;;5112763;28;20031;-64
2023/06/17 04:13:25;;;;;;;8.80;5.53;;;16.40;96.30;;;;;;5112460;28;20032;-64
2023/06/17 04:15:50;;;;;;;5.90;5.00;;;16.40;96.20;;;;;;5112500;28;20104;-64
2023/06/17 04:18:16;;;;;;;7.85;5.28;;;16.40;96.40;;;;;;5112607;28;20033;-65
2023/06/17 04:20:41;;;;;;;7.30;4.78;;;16.40;96.50;;;;;;5112876;28;20102;-64
2023/06/17 04:23:07;;;;;;;7.43;5.20;;;16.40;96.50;;;;;;5121313;28;20050;-65
2023/06/17 04:25:36;;;;;;;7.07;5.13;;;16.50;96.30;;;;;;5133591;28;20027;-65
2023/06/17 04:28:07;;;;;;;6.57;5.45;;;16.50;96.40;;;;;;5132976;28;20087;-67
2023/06/17 04:30:33;;;;;;;9.02;5.03;;;16.60;96.70;;;;;;5133541;28;20019;-64
2023/06/17 04:33:00;;;;;;;6.53;4.70;;;16.70;96.50;;;;;;5133186;28;20031;-65
2023/06/17 04:35:26;;;;;;;8.30;4.82;;;16.90;96.00;;;;;;5132735;28;20031;-64
2023/06/17 04:37:55;;;;;;;7.45;4.40;;;17.00;95.70;;;;;;5133202;28;20024;-65
2023/06/17 04:40:21;;;;;;;5.82;4.35;;;17.10;95.40;;;;;;5132627;28;20023;-65
2023/06/17 04:42:51;;;;;;;7.10;4.30;;;17.20;94.90;;;;;;5133094;28;20023;-65
2023/06/17 04:45:17;;;;;;;7.75;4.78;;;17.30;94.30;;;;;;5129011;28;20046;-65
2023/06/17 04:47:45;;;;;;;6.72;4.72;;;17.40;93.90;;;;;;5132296;28;20042;-64
2023/06/17 04:50:12;;;;;;;6.43;4.20;;;17.50;93.20;;;;;;5120169;28;20095;-65
2023/06/17 04:52:42;;;;;;;5.80;4.47;;;17.70;93.30;;;;;;5077456;28;20146;-64
2023/06/17 04:55:11;;;;;;;6.53;4.43;;;17.70;92.60;;;;;;5111865;28;20039;-64
2023/06/17 04:57:37;;;;;;;6.13;4.63;;;17.70;92.40;;;;;;5094153;28;20379;-64
2023/06/17 05:00:05;;;;;;;5.93;4.30;;;17.70;92.50;;;;;;5112410;28;21352;-65
2023/06/17 05:02:30;;;;;;;7.43;4.43;;;17.70;92.40;;;;;;5112973;28;20035;-64
2023/06/17 05:04:56;;;;;;;5.43;4.30;;;17.60;92.30;;;;;;5117617;28;20027;-64
2023/06/17 05:07:22;;;;;;;7.43;4.57;;;17.60;92.50;;;;;;5123293;28;20019;-64
2023/06/17 05:09:47;;;;;;;6.38;5.10;;;17.60;92.30;;;;;;5120839;28;20038;-64
2023/06/17 05:12:13;;;;;;;6.75;5.05;;;17.50;92.50;;;;;;5115651;28;20019;-64
2023/06/17 05:14:39;;;;;;;8.88;4.65;;;17.60;92.60;;;;;;5134918;27;20031;-64
2023/06/17 05:17:05;;;;;;;6.75;5.18;;;17.50;92.60;;;;;;5136297;27;20118;-65
2023/06/17 05:19:31;;;;;;;5.63;4.72;;;17.50;92.80;;;;;;5136627;27;20103;-64
2023/06/17 05:21:56;;;;;;;6.18;5.10;;;17.60;93.00;;;;;;5128218;27;20020;-64
2023/06/17 05:24:22;;;;;;;8.63;5.13;;;17.60;92.80;;;;;;5115985;28;20058;-64
2023/06/17 05:26:48;;;;;;;6.93;4.97;;;17.70;92.40;;;;;;5097959;28;20027;-65
2023/06/17 05:29:13;;;;;;;6.72;4.88;;;17.80;92.60;;;;;;5115185;27;20031;-65
2023/06/17 05:31:39;;;;;;;6.68;4.95;;;17.70;92.00;;;;;;5136214;27;20023;-65
2023/06/17 05:34:04;;;;;;;8.80;4.80;;;17.80;92.20;;;;;;5136075;27;20023;-66
2023/06/17 05:36:30;;;;;;;9.55;4.80;;;18.30;92.30;;;;;;5136214;27;20110;-63
2023/06/17 05:38:56;;;;;;;7.45;5.18;;;18.90;92.00;;;;;;5129669;27;20059;-64
2023/06/17 05:41:21;;;;;;;7.35;4.57;;;19.50;89.90;;;;;;5116335;28;20020;-64
2023/06/17 05:43:48;;;;;;;7.40;4.82;;;20.10;86.70;;;;;;5117492;28;20032;-65
2023/06/17 05:46:14;;;;;;;6.75;5.25;;;20.80;84.50;;;;;;5117455;28;20047;-65
2023/06/17 05:48:39;;;;;;;6.05;4.68;;;21.20;79.70;;;;;;5119318;28;20023;-65
2023/06/17 05:51:06;;;;;;;6.63;4.35;;;21.30;77.80;;;;;;5117756;28;20106;-64
2023/06/17 05:53:31;;;;;;;5.72;3.70;;;21.40;76.30;;;;;;5116194;28;20071;-65
2023/06/17 05:55:57;;;;;;;5.13;3.40;;;21.10;73.70;;;;;;5115452;28;20031;-66
2023/06/17 05:58:22;;;;;;;5.50;3.53;;;21.10;72.90;;;;;;5114995;28;20024;-65
2023/06/17 06:00:48;;;;;;;4.18;3.28;;;21.00;72.70;;;;;;5115359;28;20039;-64
2023/06/17 06:03:14;;;;;;;3.30;3.00;;;21.00;71.50;;;;;;5114828;28;20028;-65
2023/06/17 06:05:40;;;;;;;8.20;2.90;;;20.80;71.80;;;;;;5121808;27;20033;-64
2023/06/17 06:08:05;;;;;;;2.65;2.33;;;20.60;71.80;;;;;;5135868;27;20035;-64
2023/06/17 06:10:32;;;;;;;5.32;3.40;;;20.60;72.50;;;;;;5135423;27;20114;-64
2023/06/17 06:12:59;;;;;;;4.78;2.50;;;20.70;72.70;;;;;;5128555;27;20046;-64
2023/06/17 06:15:25;;;;;;;4.45;2.70;;;21.20;71.90;;;;;;5114326;28;20031;-64
2023/06/17 06:17:51;;;;;;;3.85;2.67;;;21.60;70.10;;;;;;5130605;27;20023;-64
2023/06/17 06:20:17;;;;;;;4.47;2.72;;;21.80;69.40;;;;;;5134532;27;20468;-65
2023/06/17 06:22:43;;;;;;;2.80;2.55;;;22.10;66.00;;;;;;5135168;27;20026;-64
2023/06/17 06:25:09;;;;;;;4.32;2.72;;;23.40;65.70;;;;;;5134776;27;20083;-67
2023/06/17 06:27:35;;;;;;;4.68;2.60;;;24.60;61.90;;;;;;5135269;27;20071;-65
2023/06/17 06:30:00;;;;;;;2.75;2.55;;;25.90;57.60;;;;;;5135327;27;20114;-65
2023/06/17 06:32:26;;;;;;;4.25;2.40;;;26.60;54.20;;;;;;5134907;27;20454;-65
2023/06/17 06:34:53;;;;;;;3.33;2.40;;;27.20;52.90;;;;;;5129515;27;20035;-66
2023/06/17 06:37:18;;;;;;;3.03;2.35;;;27.60;52.20;;;;;;5114328;28;20035;-65
2023/06/17 06:39:44;;;;;;;2.97;2.17;;;28.00;49.40;;;;;;5114334;28;20464;-65
2023/06/17 06:42:11;;;;;;;2.80;2.03;;;27.70;49.20;;;;;;5113644;28;20298;-66
2023/06/17 06:44:36;;;;;;;2.47;2.13;;;27.70;48.30;;;;;;5113240;28;20035;-64
2023/06/17 06:47:02;;;;;;;2.58;2.38;;;27.90;47.90;;;;;;5113366;28;20047;-64
2023/06/17 06:49:28;;;;;;;2.85;2.45;;;27.90;47.20;;;;;;5113102;28;20395;-64
2023/06/17 06:51:54;;;;;;;2.83;2.15;;;28.00;46.40;;;;;;5096030;28;20020;-64
2023/06/17 06:54:19;;;;;;;2.25;1.95;;;28.00;47.40;;;;;;5116426;27;20032;-64
2023/06/17 06:56:45;;;;;;;2.40;2.20;;;28.30;48.40;;;;;;5114293;28;20487;-64
2023/06/17 06:59:11;;;;;;;2.95;2.20;;;28.60;45.00;;;;;;5114126;28;20397;-68
2023/06/17 07:01:36;;;;;;;2.25;2.05;;;28.40;45.20;;;;;;5113992;28;20387;-65
2023/06/17 07:04:02;;;;;;;3.50;2.38;;;28.70;45.40;;;;;;5118051;27;20035;-64
2023/06/17 07:06:28;;;;;;;3.42;2.50;;;29.40;44.90;;;;;;5113564;28;20027;-64
2023/06/17 07:08:53;;;;;;;2.45;2.25;;;29.50;43.70;;;;;;5113576;28;20062;-64
2023/06/17 07:11:19;;;;;;;3.67;2.30;;;29.60;44.00;;;;;;5113222;28;20019;-64
2023/06/17 07:13:45;;;;;;;4.47;2.33;;;29.60;43.40;;;;;;5113540;28;20044;-64
2023/06/17 07:16:10;;;;;;;3.60;2.22;;;29.50;43.00;;;;;;5113477;28;20034;-64
2023/06/17 07:18:36;;;;;;;2.65;2.33;;;29.60;43.50;;;;;;5113458;28;20171;-65
2023/06/17 07:21:01;;;;;;;4.75;2.67;;;29.40;43.70;;;;;;5113619;28;20047;-65
2023/06/17 07:23:27;;;;;;;3.17;2.40;;;29.70;43.40;;;;;;5115735;27;20066;-64
2023/06/17 07:25:53;;;;;;;4.35;2.60;;;29.80;42.70;;;;;;5113483;28;20026;-65
2023/06/17 07:28:18;;;;;;;4.03;3.00;;;29.40;42.90;;;;;;5112964;28;20042;-65
2023/06/17 07:30:44;;;;;;;2.70;2.40;;;28.60;42.70;;;;;;5113621;28;20020;-64
2023/06/17 07:33:09;;;;;;;4.57;2.88;;;28.10;44.20;;;;;;5095109;28;20032;-64
2023/06/17 07:35:35;;;;;;;2.67;2.45;;;28.20;44.80;;;;;;5112847;28;20035;-64
2023/06/17 07:38:01;;;;;;;3.20;2.50;;;28.20;46.00;;;;;;5095246;28;20047;-65
2023/06/17 07:40:26;;;;;;;3.00;2.47;;;28.30;45.80;;;;;;5095234;28;20027;-65
2023/06/17 07:42:52;;;;;;;5.03;2.55;;;28.00;46.20;;;;;;5113386;28;20479;-65
2023/06/17 07:45:18;;;;;;;3.47;2.28;;;28.20;46.70;;;;;;5128430;27;20050;-65
2023/06/17 07:47:43;;;;;;;6.35;2.38;;;28.80;45.40;;;;;;5133550;27;20065;-65
2023/06/17 07:50:09;;;;;;;4.15;2.40;;;28.90;45.00;;;;;;5113279;28;20038;-65
2023/06/17 07:52:35;;;;;;;2.83;2.55;;;29.40;44.60;;;;;;5112515;28;20069;-65
2023/06/17 07:55:02;;;;;;;2.88;2.38;;;30.00;42.80;;;;;;5112658;28;20112;-65
2023/06/17 07:57:28;;;;;;;5.40;2.42;;;30.10;42.90;;;;;;5120136;27;20042;-65
2023/06/17 07:59:54;;;;;;;3.05;2.45;;;29.70;42.50;;;;;;5127056;27;20027;-65
2023/06/17 08:02:20;;;;;;;3.70;2.67;;;28.80;43.00;;;;;;5118541;27;20394;-65
2023/06/17 08:04:45;;;;;;;5.07;2.63;;;28.60;43.10;;;;;;5118177;27;20126;-64
2023/06/17 08:07:11;;;;;;;3.70;2.60;;;28.70;42.70;;;;;;5112859;28;20026;-64
2023/06/17 08:09:37;;;;;;;2.45;2.20;;;28.70;43.00;;;;;;5111428;28;20641;-65
2023/06/17 08:12:03;;;;;;;3.10;2.80;;;28.60;43.20;;;;;;5112454;28;20063;-64
2023/06/17 08:14:29;;;;;;;2.60;2.35;;;28.10;43.30;;;;;;5131617;27;20461;-64
2023/06/17 08:16:55;;;;;;;3.42;2.40;;;28.20;44.50;;;;;;5123978;28;20030;-65
2023/06/17 08:19:21;;;;;;;2.65;2.45;;;28.30;42.80;;;;;;5112202;28;20047;-65
2023/06/17 08:21:46;;;;;;;4.30;2.80;;;28.10;43.30;;;;;;5116152;28;20095;-66
2023/06/17 08:24:20;;;;;;;3.08;2.72;;;27.80;42.80;;;;;;5132902;28;20467;-65
2023/06/17 08:26:45;;;;;;;4.25;2.80;;;27.50;43.90;;;;;;5116866;28;20027;-65
2023/06/17 08:29:15;;;;;;;5.57;2.75;;;27.20;44.30;;;;;;5112020;28;20030;-64
2023/06/17 08:31:50;;;;;;;3.13;2.63;;;26.90;46.20;;;;;;5111907;28;20035;-64
2023/06/17 08:34:19;;;;;;;5.22;2.63;;;26.70;47.60;;;;;;5112300;28;20107;-64
2023/06/17 08:36:46;;;;;;;6.13;2.90;;;26.00;46.90;;;;;;5112727;28;20035;-65
2023/06/17 08:39:12;;;;;;;5.13;2.92;;;25.90;47.20;;;;;;5112550;28;20027;-65
2023/06/17 08:41:40;;;;;;;4.55;2.55;;;25.60;49.50;;;;;;5112078;28;20113;-65
2023/06/17 08:44:07;;;;;;;6.00;3.45;;;25.80;49.00;;;;;;5113460;28;20031;-65
2023/06/17 08:46:33;;;;;;;3.97;3.15;;;25.80;49.70;;;;;;5116172;28;20040;-65
2023/06/17 08:48:59;;;;;;;3.28;2.97;;;25.40;48.60;;;;;;5116543;28;20448;-65
2023/06/17 08:51:25;;;;;;;4.60;2.75;;;25.30;49.20;;;;;;5116137;28;20027;-65
2023/06/17 08:53:52;;;;;;;7.13;3.47;;;25.30;50.80;;;;;;5116530;28;20361;-65
2023/06/17 08:56:18;;;;;;;5.90;3.33;;;25.00;50.00;;;;;;5116223;28;20063;-65
2023/06/17 08:58:47;;;;;;;4.78;3.00;;;25.00;50.30;;;;;;5118338;27;20027;-65
2023/06/17 09:01:13;;;;;;;4.53;3.20;;;25.10;51.20;;;;;;5116275;28;20031;-65
2023/06/17 09:03:41;;;;;;;4.53;3.35;;;24.90;51.20;;;;;;5097558;28;20123;-64
2023/06/17 09:06:23;;;;;;;7.30;3.20;;;24.80;50.80;;;;;;5116358;28;20065;-64
2023/06/17 09:08:50;;;;;;;4.13;3.13;;;25.00;51.70;;;;;;5116055;28;20031;-64
2023/06/17 09:11:17;;;;;;;3.70;2.88;;;25.00;51.30;;;;;;5116280;28;20395;-64
2023/06/17 09:13:50;;;;;;;5.78;3.42;;;24.90;51.00;;;;;;5115495;28;20118;-64
2023/06/17 09:16:17;;;;;;;3.95;3.40;;;24.80;52.20;;;;;;5115854;28;20032;-64
2023/06/17 09:18:42;;;;;;;4.07;3.20;;;24.70;51.50;;;;;;5115647;28;20024;-65
2023/06/17 09:21:08;;;;;;;6.40;3.20;;;24.60;51.50;;;;;;5115965;28;20088;-64
2023/06/17 09:23:34;;;;;;;7.22;2.95;;;24.50;51.10;;;;;;5115451;28;20429;-65
2023/06/17 09:26:03;;;;;;;4.90;3.20;;;24.30;50.00;;;;;;5116542;27;20027;-65
2023/06/17 09:28:30;;;;;;;4.75;3.40;;;24.30;50.10;;;;;;5115628;28;20024;-65
2023/06/17 09:30:57;;;;;;;4.75;4.30;;;24.40;51.30;;;;;;5097276;28;20023;-64
2023/06/17 09:33:27;;;;;;;3.92;3.42;;;24.50;51.00;;;;;;5115344;28;20027;-66
2023/06/17 09:35:59;;;;;;;3.78;3.00;;;24.50;53.20;;;;;;5097582;28;20063;-64
2023/06/17 09:38:28;;;;;;;5.70;3.28;;;24.60;52.30;;;;;;5097107;28;20023;-65
2023/06/17 09:40:55;;;;;;;9.65;3.20;;;24.60;49.90;;;;;;5115678;28;20028;-65
2023/06/17 09:43:27;;;;;;;7.13;3.22;;;24.50;49.80;;;;;;5115668;28;20030;-65
2023/06/17 09:46:02;;;;;;;6.00;2.90;;;24.30;51.70;;;;;;5115450;28;20380;-64
2023/06/17 09:48:32;;;;;;;6.25;3.20;;;24.40;49.60;;;;;;5115069;28;20065;-64
2023/06/17 09:50:58;;;;;;;4.38;2.92;;;24.50;49.90;;;;;;5115770;28;20041;-64
2023/06/17 09:53:27;;;;;;;4.22;3.00;;;24.50;49.60;;;;;;5096611;28;20028;-65
2023/06/17 09:55:56;;;;;;;3.33;3.03;;;24.50;49.70;;;;;;5114268;28;20038;-64
2023/06/17 09:58:30;;;;;;;2.97;2.67;;;24.50;48.90;;;;;;5115036;28;20020;-65
2023/06/17 10:00:58;;;;;;;3.58;3.00;;;24.40;48.70;;;;;;5115270;28;20115;-64
2023/06/17 10:03:24;;;;;;;5.43;3.30;;;24.40;49.00;;;;;;5096750;28;20083;-64
2023/06/17 10:06:10;;;;;;;4.15;3.22;;;24.30;50.00;;;;;;5116334;28;20201;-66
2023/06/17 10:08:50;;;;;;;4.47;3.22;;;24.40;50.10;;;;;;5116089;28;20395;-65
2023/06/17 10:11:19;;;;;;;4.60;3.38;;;24.30;51.70;;;;;;5117703;28;20028;-64
2023/06/17 10:13:49;;;;;;;5.15;3.20;;;24.40;51.50;;;;;;5116874;28;20036;-64
2023/06/17 10:16:17;;;;;;;;;;;24.50;51.70;;;;;;5116231;28;20357;-64
2023/06/17 10:18:46;;;;;;;5.18;3.67;;;24.50;49.10;;;;;;5096568;28;20313;-64
2023/06/17 10:21:13;;;;;;;3.30;3.00;;;24.60;49.00;;;;;;5114994;28;20062;-64
2023/06/17 10:23:40;;;;;;;4.13;3.17;;;24.70;49.00;;;;;;5114728;27;20050;-65
2023/06/17 10:26:07;;;;;;;4.43;3.80;;;24.70;47.50;;;;;;5115271;27;20110;-64
2023/06/17 10:28:59;;;;;;;8.43;3.78;;;24.60;46.60;;;;;;5114450;28;20028;-65
2023/06/17 10:31:27;;;;;;;3.83;3.30;;;24.80;46.80;;;;;;5114624;28;20038;-65
2023/06/17 10:33:54;;;;;;;7.43;3.50;;;24.90;46.50;;;;;;5115328;28;20024;-65
2023/06/17 10:36:23;;;;;;;5.18;3.35;;;25.00;48.00;;;;;;5114760;28;20042;-64
2023/06/17 10:39:13;;;;;;;3.33;3.03;;;25.00;45.80;;;;;;5115995;28;20028;-63
2023/06/17 10:41:38;;;;;;;5.18;3.42;;;25.10;46.00;;;;;;5107567;28;20067;-64
2023/06/17 10:44:35;;;;;;;4.55;3.58;;;25.20;45.40;;;;;;5115495;28;20039;-65
2023/06/17 10:47:02;;;;;;;6.97;3.33;;;25.20;45.40;;;;;;5114142;28;20123;-65
2023/06/17 10:49:39;;;;;;;6.80;3.53;;;25.00;47.40;;;;;;5114207;28;20023;-65
2023/06/17 10:52:10;;;;;;;5.22;3.53;;;25.00;45.70;;;;;;5114716;28;20380;-65
2023/06/17 10:54:44;;;;;;;5.57;3.30;;;25.00;46.70;;;;;;5116462;27;20092;-66
2023/06/17 10:57:10;;;;;;;12.77;3.88;;;24.90;46.90;;;;;;5135040;27;20414;-65
2023/06/17 10:59:35;;;;;;;4.22;3.58;;;24.90;47.70;;;;;;5134438;27;20030;-65
2023/06/17 11:02:07;;;;;;;4.80;3.72;;;24.90;47.40;;;;;;5134818;27;20460;-66
2023/06/17 11:04:43;;;;;;;4.38;3.53;;;24.90;46.20;;;;;;5134387;27;20108;-65
2023/06/17 11:07:09;;;;;;;8.10;3.40;;;24.70;47.10;;;;;;5134527;27;20110;-66
2023/06/17 11:09:36;;;;;;;4.32;3.40;;;24.70;47.80;;;;;;5134147;27;20084;-66
2023/06/17 11:12:02;;;;;;;4.28;3.65;;;24.60;48.10;;;;;;5134235;27;20024;-64
2023/06/17 11:14:30;;;;;;;4.93;3.83;;;24.60;48.90;;;;;;5131696;27;20035;-67
2023/06/17 11:16:56;;;;;;;4.53;3.60;;;24.60;48.80;;;;;;5121906;27;20027;-64
2023/06/17 11:19:22;;;;;;;4.32;2.92;;;24.50;47.60;;;;;;5127668;27;20054;-65
2023/06/17 11:21:57;;;;;;;4.10;3.60;;;24.50;48.50;;;;;;5116265;27;20605;-64
2023/06/17 11:24:23;;;;;;;4.43;3.30;;;24.50;47.60;;;;;;5118384;27;20085;-65
2023/06/17 11:26:48;;;;;;;5.80;4.05;;;24.50;47.60;;;;;;5133444;27;20467;-65
2023/06/17 11:29:14;;;;;;;3.33;2.80;;;24.50;47.50;;;;;;5130370;27;20098;-64
2023/06/17 11:31:40;;;;;;;4.20;3.28;;;24.60;48.70;;;;;;5127870;27;20164;-65
2023/06/17 11:34:09;;;;;;;4.72;3.42;;;24.70;46.60;;;;;;5113036;28;20034;-64
2023/06/17 11:36:35;;;;;;;3.63;3.17;;;24.90;46.30;;;;;;5112769;28;20384;-66
2023/06/17 11:39:02;;;;;;;4.75;3.35;;;24.90;48.90;;;;;;5121051;27;20039;-64
2023/06/17 11:41:28;;;;;;;4.95;3.10;;;24.90;47.80;;;;;;5129255;27;20028;-65
2023/06/17 11:43:53;;;;;;;3.90;3.50;;;25.00;49.00;;;;;;5112661;28;20028;-65
2023/06/17 11:46:20;;;;;;;5.13;4.03;;;25.00;46.50;;;;;;5112937;28;20047;-65
2023/06/17 11:48:47;;;;;;;5.10;3.70;;;25.00;47.00;;;;;;5112425;28;20352;-65
2023/06/17 11:51:15;;;;;;;5.20;3.70;;;25.10;50.20;;;;;;5112566;28;20046;-64
2023/06/17 11:53:43;;;;;;;3.53;3.22;;;25.10;48.70;;;;;;5112136;28;20077;-64
2023/06/17 11:56:09;;;;;;;5.35;3.90;;;25.10;48.30;;;;;;5112762;28;20042;-64
2023/06/17 11:58:38;;;;;;;5.95;3.83;;;25.10;48.60;;;;;;5111602;28;20023;-65
2023/06/17 12:01:04;;;;;;;4.40;3.53;;;25.00;50.10;;;;;;5112303;28;20077;-65
2023/06/17 12:03:30;;;;;;;7.38;3.92;;;25.10;50.60;;;;;;5112596;28;20039;-64
2023/06/17 12:05:59;;;;;;;4.85;3.63;;;25.10;50.50;;;;;;5112182;28;20027;-64
2023/06/17 12:08:32;;;;;;;5.35;3.58;;;25.10;48.50;;;;;;5112682;28;20027;-64
2023/06/17 12:10:58;;;;;;;4.97;3.58;;;25.00;48.00;;;;;;5112735;28;20079;-65
2023/06/17 12:13:37;;;;;;;4.78;3.53;;;24.90;48.50;;;;;;5117813;28;20035;-65
2023/06/17 12:16:10;;;;;;;6.13;3.88;;;24.80;49.20;;;;;;5112060;28;20036;-65
2023/06/17 12:18:36;;;;;;;4.85;3.65;;;24.70;50.90;;;;;;5111505;28;20373;-65
2023/06/17 12:21:08;;;;;;;5.45;3.45;;;24.60;50.70;;;;;;5112737;28;20052;-65
2023/06/17 12:23:34;;;;;;;3.95;3.55;;;24.50;51.00;;;;;;5112297;28;20061;-67
2023/06/17 12:25:59;;;;;;;6.70;3.85;;;24.50;52.10;;;;;;5112671;28;20028;-65
2023/06/17 12:28:25;;;;;;;4.63;3.33;;;24.60;50.00;;;;;;5112662;28;20023;-65
2023/06/17 12:30:51;;;;;;;5.38;2.97;;;24.70;50.10;;;;;;5112208;28;20020;-65
2023/06/17 12:33:16;;;;;;;4.13;3.47;;;24.70;49.20;;;;;;5124035;28;20019;-65
2023/06/17 12:35:42;;;;;;;9.07;3.85;;;24.70;49.90;;;;;;5103320;28;20479;-65
2023/06/17 12:38:08;;;;;;;9.02;3.40;;;24.70;49.80;;;;;;5112561;28;20019;-65
2023/06/17 12:40:33;;;;;;;5.38;3.70;;;24.50;49.80;;;;;;5112365;28;20035;-67
2023/06/17 12:42:59;;;;;;;4.20;3.80;;;24.50;50.50;;;;;;5114499;28;20035;-65
2023/06/17 12:45:27;;;;;;;5.25;3.53;;;24.40;50.40;;;;;;5129181;28;20395;-65
2023/06/17 12:47:52;;;;;;;6.07;4.20;;;24.30;50.30;;;;;;5111900;28;20425;-65